This is the latest recevied weather packets stored in our database for station/object KN4AN. If no packets are shown the sender has not sent any weather packets the latest 10 day(s).
| Time | Temp. | Humidity | Pressure | Rain* | Wind** | Luminosity | Snow |
|---|---|---|---|---|---|---|---|
| 1787849655 | 27.22° C | 71% | 1016.1 hPa | 0 mm | - | 437 W/m² | - |
| 1787849350 | 27.22° C | 72% | 1016.3 hPa | 0 mm | - | 354 W/m² | - |
| 1787849049 | 27.22° C | 72% | 1016.3 hPa | 0 mm | - | 330 W/m² | - |
| 1787848743 | 27.22° C | 71% | 1016.2 hPa | 0 mm | - | 289 W/m² | - |
| 1787848438 | 27.22° C | 72% | 1016.5 hPa | 0 mm | - | 285 W/m² | - |
| 1787848138 | 27.22° C | 73% | 1016.5 hPa | 0 mm | - | 292 W/m² | - |
| 1787847838 | 27.22° C | 72% | 1016.4 hPa | 0 mm | - | 395 W/m² | - |
| 1787847533 | 27.22° C | 71% | 1016.5 hPa | 0 mm | - | 387 W/m² | - |
| 1787847228 | 26.67° C | 73% | 1016.5 hPa | 0 mm | - | 298 W/m² | - |
| 1787846926 | 27.22° C | 72% | 1016.4 hPa | 0 mm | - | 267 W/m² | - |
| 1787846624 | 27.22° C | 73% | 1016.4 hPa | 0 mm | - | 258 W/m² | - |
| 1787846319 | 27.22° C | 73% | 1016.6 hPa | 0 mm | - | 281 W/m² | - |
| 1787846016 | 27.22° C | 72% | 1016.6 hPa | 0 mm | - | 343 W/m² | - |
| 1787845711 | 27.78° C | 70% | 1016.5 hPa | 0 mm | - | 375 W/m² | - |
| 1787845411 | 27.22° C | 73% | 1016.5 hPa | 0 mm | - | 692 W/m² | - |
| 1787845107 | 26.67° C | 73% | 1016.6 hPa | 0 mm | - | 374 W/m² | - |
| 1787844803 | 26.67° C | 74% | 1016.7 hPa | 0 mm | - | 359 W/m² | - |
| 1787844501 | 26.67° C | 74% | 1016.7 hPa | 0 mm | - | 405 W/m² | - |
| 1787844197 | 26.67° C | 75% | 1016.9 hPa | 0 mm | - | 400 W/m² | - |
| 1787843895 | 25.56° C | 78% | 1016.9 hPa | 0 mm | - | 484 W/m² | - |
| 1787843591 | 25.56° C | 80% | 1016.8 hPa | 0 mm | - | 256 W/m² | - |
| 1787843287 | 25.56° C | 78% | 1016.8 hPa | 0 mm | - | 215 W/m² | - |
| 1787842983 | 25.56° C | 78% | 1016.6 hPa | 0 mm | - | 229 W/m² | - |
| 1787842682 | 25.56° C | 79% | 1016.5 hPa | 0 mm | - | 208 W/m² | - |
| 1787842377 | 25.56° C | 79% | 1016.6 hPa | 0 mm | - | 231 W/m² | - |
* Rain latest hour (hover to see other rain measurements)
** Current wind speed in m/s (hover to see current wind gust speed)